createdAt,value
2023-10-20T00:00:51.294Z,17.70
2023-10-20T00:03:18.490Z,17.50
2023-10-20T00:05:45.532Z,18.63
2023-10-20T00:08:12.470Z,19.23
2023-10-20T00:10:40.815Z,20.03
2023-10-20T00:13:07.881Z,18.97
2023-10-20T00:15:35.836Z,18.97
2023-10-20T00:18:05.919Z,21.73
2023-10-20T00:20:32.839Z,21.33
2023-10-20T00:22:59.730Z,23.57
2023-10-20T00:25:26.489Z,21.20
2023-10-20T00:27:53.438Z,20.87
2023-10-20T00:30:20.221Z,19.33
2023-10-20T00:32:47.115Z,20.47
2023-10-20T00:35:15.240Z,20.53
2023-10-20T00:37:42.510Z,20.80
2023-10-20T00:40:11.956Z,21.50
2023-10-20T00:42:39.188Z,20.43
2023-10-20T00:45:08.289Z,22.87
2023-10-20T00:47:38.574Z,25.40
2023-10-20T00:50:07.696Z,25.13
2023-10-20T00:52:37.249Z,21.33
2023-10-20T00:55:05.066Z,29.03
2023-10-20T00:57:33.570Z,24.67
2023-10-20T01:00:00.393Z,45.87
2023-10-20T01:02:31.174Z,29.03
2023-10-20T01:05:01.366Z,27.23
2023-10-20T01:07:28.320Z,25.33
2023-10-20T01:10:00.840Z,27.47
2023-10-20T01:12:28.077Z,27.37
2023-10-20T01:14:54.928Z,27.37
2023-10-20T01:17:21.826Z,25.60
2023-10-20T01:19:48.772Z,158.53
2023-10-20T01:22:15.542Z,35.43
2023-10-20T01:24:42.578Z,27.43
2023-10-20T01:27:09.833Z,52.07
2023-10-20T01:29:36.735Z,63.07
2023-10-20T01:32:04.792Z,26.80
2023-10-20T01:34:32.723Z,27.50
2023-10-20T01:37:00.600Z,27.37
2023-10-20T01:39:27.298Z,29.13
2023-10-20T01:41:54.109Z,30.47
2023-10-20T01:44:20.859Z,26.87
2023-10-20T01:46:50.955Z,28.30
2023-10-20T01:49:19.357Z,28.00
2023-10-20T01:51:46.134Z,27.07
2023-10-20T01:54:13.335Z,25.90
2023-10-20T01:56:40.146Z,27.33
2023-10-20T01:59:07.260Z,27.93
2023-10-20T02:01:34.935Z,29.33
2023-10-20T02:04:01.869Z,29.37
2023-10-20T02:06:29.086Z,28.07
2023-10-20T02:08:56.052Z,30.07
2023-10-20T02:11:22.894Z,30.70
2023-10-20T02:13:49.692Z,30.30
2023-10-20T02:16:16.900Z,29.37
2023-10-20T02:18:44.994Z,26.97
2023-10-20T02:21:11.926Z,26.20
2023-10-20T02:23:41.943Z,26.20
2023-10-20T02:26:10.211Z,25.37
2023-10-20T02:28:38.011Z,26.83
2023-10-20T02:31:18.896Z,25.57
2023-10-20T02:33:46.050Z,25.67
2023-10-20T02:36:17.928Z,25.77
2023-10-20T02:38:44.902Z,23.77
2023-10-20T02:41:11.736Z,24.17
2023-10-20T02:43:38.516Z,25.47
2023-10-20T02:46:05.362Z,25.27
2023-10-20T02:48:32.334Z,25.13
2023-10-20T02:50:59.291Z,25.50
2023-10-20T02:53:26.199Z,26.17
2023-10-20T02:55:53.008Z,24.97
2023-10-20T02:58:19.973Z,25.30
2023-10-20T03:00:48.134Z,25.17
2023-10-20T03:03:15.310Z,25.97
2023-10-20T03:05:46.889Z,26.30
2023-10-20T03:08:14.234Z,25.87
2023-10-20T03:10:41.459Z,27.07
2023-10-20T03:13:08.276Z,27.70
2023-10-20T03:15:35.211Z,26.00
2023-10-20T03:18:02.070Z,25.67
2023-10-20T03:20:34.222Z,25.33
2023-10-20T03:23:02.464Z,26.40
2023-10-20T03:25:32.499Z,25.00
2023-10-20T03:27:59.263Z,26.53
2023-10-20T03:30:26.018Z,22.97
2023-10-20T03:32:52.803Z,23.77
2023-10-20T03:35:19.691Z,24.33
2023-10-20T03:37:46.547Z,24.60
2023-10-20T03:40:17.762Z,24.77
2023-10-20T03:42:45.077Z,23.90
2023-10-20T03:45:15.248Z,24.07
2023-10-20T03:47:45.080Z,24.47
2023-10-20T03:50:17.317Z,25.37
2023-10-20T03:52:48.484Z,24.67
2023-10-20T03:55:16.025Z,24.27
2023-10-20T03:57:44.079Z,23.00
2023-10-20T04:00:19.314Z,22.73
2023-10-20T04:02:48.037Z,22.93
2023-10-20T04:05:16.581Z,22.67
2023-10-20T04:07:44.087Z,21.37
2023-10-20T04:10:11.133Z,21.73
2023-10-20T04:12:40.246Z,20.90
2023-10-20T04:15:16.419Z,21.80
2023-10-20T04:17:57.355Z,20.07
2023-10-20T04:20:25.159Z,20.83
2023-10-20T04:22:52.112Z,19.53
2023-10-20T04:25:24.236Z,19.53
2023-10-20T04:27:51.947Z,19.20
2023-10-20T04:30:38.420Z,21.27
2023-10-20T04:33:24.869Z,21.57
2023-10-20T04:36:11.080Z,20.70
2023-10-20T04:38:56.761Z,22.83
2023-10-20T04:41:42.966Z,20.97
2023-10-20T04:44:15.764Z,20.33
2023-10-20T04:46:55.442Z,19.37
2023-10-20T04:49:42.808Z,19.50
2023-10-20T04:52:28.923Z,18.70
2023-10-20T04:55:01.638Z,19.03
2023-10-20T04:57:47.279Z,17.93
2023-10-20T05:00:14.388Z,17.93
2023-10-20T05:02:52.262Z,17.73
2023-10-20T05:05:41.176Z,17.07
2023-10-20T05:08:14.005Z,17.70
2023-10-20T05:10:43.254Z,18.47
2023-10-20T05:13:10.885Z,17.23
2023-10-20T05:15:41.580Z,19.20
2023-10-20T05:18:16.382Z,18.33
2023-10-20T05:20:44.376Z,18.03
2023-10-20T05:23:17.434Z,18.43
2023-10-20T05:25:50.778Z,17.10
2023-10-20T05:28:18.270Z,17.60
2023-10-20T05:30:46.379Z,17.50
2023-10-20T05:33:13.992Z,16.57
2023-10-20T05:35:41.904Z,17.87
2023-10-20T05:38:09.162Z,18.50
2023-10-20T05:40:36.947Z,19.40
2023-10-20T05:43:06.554Z,19.47
2023-10-20T05:45:41.263Z,19.63
2023-10-20T05:48:09.884Z,18.00
2023-10-20T05:50:39.337Z,19.13
2023-10-20T05:53:07.018Z,18.53
2023-10-20T05:55:34.389Z,17.97
2023-10-20T05:58:02.221Z,18.13
2023-10-20T06:00:29.172Z,18.57
2023-10-20T06:02:56.530Z,18.37
2023-10-20T06:05:23.643Z,17.50
2023-10-20T06:07:50.769Z,18.10
2023-10-20T06:10:23.660Z,17.07
2023-10-20T06:12:54.674Z,16.87
2023-10-20T06:15:22.104Z,17.80
2023-10-20T06:17:50.967Z,16.50
2023-10-20T06:20:19.951Z,17.07
2023-10-20T06:22:47.296Z,17.20
2023-10-20T06:25:14.611Z,16.40
2023-10-20T06:27:45.265Z,16.87
2023-10-20T06:30:16.040Z,16.50
2023-10-20T06:32:44.278Z,15.67
2023-10-20T06:35:11.627Z,16.17
2023-10-20T06:37:44.150Z,14.40
2023-10-20T06:40:16.749Z,14.40
2023-10-20T06:42:46.719Z,13.43
2023-10-20T06:45:13.520Z,13.67
2023-10-20T06:47:44.005Z,13.13
2023-10-20T06:50:12.251Z,12.20
2023-10-20T06:52:39.326Z,11.90
2023-10-20T06:57:36.953Z,11.53
2023-10-20T07:00:05.039Z,10.37
2023-10-20T07:02:32.030Z,10.13
2023-10-20T07:04:59.024Z,9.60
2023-10-20T07:07:25.970Z,8.10
2023-10-20T07:09:52.770Z,8.70
2023-10-20T07:12:19.568Z,9.37
2023-10-20T07:14:46.530Z,6.23
2023-10-20T07:17:13.362Z,4.80
2023-10-20T07:19:40.419Z,5.20
2023-10-20T07:22:07.375Z,7.75
2023-10-20T07:24:35.114Z,6.03
2023-10-20T07:27:03.251Z,4.43
2023-10-20T07:29:30.231Z,4.72
2023-10-20T07:31:57.238Z,3.60
2023-10-20T07:34:24.170Z,3.90
2023-10-20T07:36:50.955Z,3.88
2023-10-20T07:39:17.912Z,4.47
2023-10-20T07:41:45.542Z,4.00
2023-10-20T07:44:17.272Z,4.47
2023-10-20T07:46:44.623Z,4.57
2023-10-20T07:49:14.434Z,4.70
2023-10-20T07:51:41.294Z,4.40
2023-10-20T07:54:10.182Z,4.10
2023-10-20T07:56:37.516Z,4.78
2023-10-20T07:59:05.265Z,3.58
2023-10-20T08:01:32.196Z,3.45
2023-10-20T08:03:59.182Z,2.50
2023-10-20T08:06:26.981Z,2.83
2023-10-20T08:08:54.003Z,2.90
2023-10-20T08:11:20.951Z,2.70
2023-10-20T08:13:51.932Z,2.78
2023-10-20T08:16:21.766Z,3.80
2023-10-20T08:18:49.927Z,3.95
2023-10-20T08:21:17.316Z,3.72
2023-10-20T08:23:44.757Z,3.30
2023-10-20T08:26:17.015Z,2.85
2023-10-20T08:28:44.111Z,3.92
2023-10-20T08:31:15.635Z,3.60
2023-10-20T08:33:42.545Z,3.70
2023-10-20T08:36:13.945Z,3.80
2023-10-20T08:38:42.708Z,3.80
2023-10-20T08:41:15.189Z,4.18
2023-10-20T08:43:43.588Z,5.20
2023-10-20T08:46:12.090Z,4.43
2023-10-20T08:48:42.409Z,3.78
2023-10-20T08:51:11.313Z,4.47
2023-10-20T08:53:39.134Z,3.90
2023-10-20T08:56:08.380Z,3.78
2023-10-20T08:58:36.299Z,3.60
2023-10-20T09:01:04.469Z,3.63
2023-10-20T09:03:42.703Z,3.03
2023-10-20T09:06:13.496Z,3.17
2023-10-20T09:08:41.355Z,3.05
2023-10-20T09:11:13.211Z,3.42
2023-10-20T09:13:41.872Z,3.70
2023-10-20T09:16:10.699Z,3.42
2023-10-20T09:18:50.801Z,3.33
2023-10-20T09:21:20.021Z,3.42
2023-10-20T09:23:57.781Z,3.38
2023-10-20T09:26:26.289Z,4.88
2023-10-20T09:28:57.489Z,4.07
2023-10-20T09:31:26.654Z,4.80
2023-10-20T09:33:53.650Z,4.97
2023-10-20T09:36:21.426Z,4.45
2023-10-20T09:38:56.332Z,4.80
2023-10-20T09:41:25.016Z,4.63
2023-10-20T09:43:54.127Z,4.35
2023-10-20T09:46:21.231Z,4.32
2023-10-20T09:48:52.435Z,4.78
2023-10-20T09:51:21.421Z,4.63
2023-10-20T09:53:50.130Z,4.90
2023-10-20T09:56:18.845Z,4.72
2023-10-20T09:58:45.921Z,5.13
2023-10-20T10:01:16.941Z,4.78
2023-10-20T10:04:00.249Z,3.63
2023-10-20T10:06:27.166Z,4.13
2023-10-20T10:08:54.511Z,4.00
2023-10-20T10:11:27.396Z,3.38
2023-10-20T10:14:02.698Z,3.00
2023-10-20T10:16:30.004Z,3.25
2023-10-20T10:19:07.988Z,2.88
2023-10-20T10:21:39.945Z,2.95
2023-10-20T10:24:18.548Z,2.97
2023-10-20T10:26:52.411Z,3.40
2023-10-20T10:29:49.610Z,3.40
2023-10-20T10:32:22.111Z,3.50
2023-10-20T10:34:57.959Z,3.33
2023-10-20T10:37:36.741Z,2.90
2023-10-20T10:40:11.086Z,2.97
2023-10-20T10:42:39.968Z,2.85
2023-10-20T10:45:35.639Z,2.80
2023-10-20T10:48:12.932Z,2.88
2023-10-20T10:50:49.001Z,2.92
2023-10-20T10:53:16.498Z,3.17
2023-10-20T10:55:43.715Z,2.85
2023-10-20T10:58:13.812Z,2.75
2023-10-20T11:00:41.903Z,2.92
2023-10-20T11:03:10.669Z,3.03
2023-10-20T11:05:38.846Z,3.00
2023-10-20T11:08:07.656Z,3.35
2023-10-20T11:10:37.406Z,2.88
2023-10-20T11:13:09.900Z,3.13
2023-10-20T11:15:37.037Z,3.13
2023-10-20T11:18:06.350Z,2.97
2023-10-20T11:20:42.783Z,3.30
2023-10-20T11:23:10.902Z,3.17
2023-10-20T11:25:38.532Z,2.70
2023-10-20T11:28:05.849Z,2.60
2023-10-20T11:30:36.345Z,2.20
2023-10-20T11:33:04.934Z,3.05
2023-10-20T11:35:32.072Z,3.28
2023-10-20T11:37:59.985Z,3.03
2023-10-20T11:40:29.578Z,1.90
2023-10-20T11:42:57.311Z,1.13
2023-10-20T11:45:24.672Z,1.30
2023-10-20T11:47:52.590Z,1.00
2023-10-20T11:50:24.802Z,0.80
2023-10-20T11:52:51.876Z,0.90
2023-10-20T11:55:19.597Z,0.60
2023-10-20T11:57:46.591Z,0.52
2023-10-20T12:00:15.245Z,0.60
2023-10-20T12:02:42.855Z,0.80
2023-10-20T12:05:10.600Z,0.60
2023-10-20T12:07:38.913Z,0.60
2023-10-20T12:10:06.974Z,0.40
2023-10-20T12:12:35.156Z,0.60
2023-10-20T12:15:02.414Z,0.60
2023-10-20T12:17:29.891Z,0.70
2023-10-20T12:19:56.812Z,0.40
2023-10-20T12:22:24.596Z,0.60
2023-10-20T12:24:51.624Z,0.40
2023-10-20T12:27:18.880Z,0.43
2023-10-20T12:29:45.790Z,0.50
2023-10-20T12:32:14.469Z,0.63
2023-10-20T12:34:41.918Z,0.47
2023-10-20T12:37:09.107Z,0.60
2023-10-20T12:39:36.069Z,0.40
2023-10-20T12:42:06.512Z,0.47
2023-10-20T12:44:37.371Z,0.47
2023-10-20T12:47:04.801Z,0.55
2023-10-20T12:49:34.404Z,0.50
2023-10-20T12:52:01.405Z,0.50
2023-10-20T12:54:28.180Z,0.50
2023-10-20T12:56:55.308Z,0.30
2023-10-20T12:59:22.283Z,0.50
2023-10-20T13:01:49.214Z,0.70
2023-10-20T13:04:16.261Z,0.50
2023-10-20T13:06:58.282Z,0.40
2023-10-20T13:09:27.123Z,0.60
2023-10-20T13:11:54.071Z,0.63
2023-10-20T13:14:21.050Z,0.47
2023-10-20T13:16:48.035Z,0.70
2023-10-20T13:19:15.574Z,0.55
2023-10-20T13:21:43.117Z,0.80
2023-10-20T13:24:10.438Z,0.80
2023-10-20T13:26:37.630Z,0.98
2023-10-20T13:29:05.798Z,0.60
2023-10-20T13:31:35.099Z,0.80
2023-10-20T13:34:03.527Z,0.80
2023-10-20T13:36:30.412Z,0.68
2023-10-20T13:38:57.234Z,0.70
2023-10-20T13:41:25.069Z,0.80
2023-10-20T13:43:52.832Z,0.70
2023-10-20T13:46:20.154Z,0.68
2023-10-20T13:48:48.162Z,1.25
2023-10-20T13:51:15.042Z,0.70
2023-10-20T13:53:42.114Z,0.80
2023-10-20T13:56:09.002Z,0.70
2023-10-20T13:58:35.865Z,0.70
2023-10-20T14:01:03.949Z,0.77
2023-10-20T14:03:31.292Z,0.70
2023-10-20T14:05:58.486Z,0.63
2023-10-20T14:08:26.015Z,0.70
2023-10-20T14:10:55.287Z,0.80
2023-10-20T14:13:22.211Z,0.52
2023-10-20T14:15:50.848Z,0.80
2023-10-20T14:18:18.912Z,0.93
2023-10-20T14:20:46.156Z,0.63
2023-10-20T14:23:18.956Z,0.80
2023-10-20T14:25:46.568Z,0.95
2023-10-20T14:28:13.513Z,0.68
2023-10-20T14:30:40.331Z,0.90
2023-10-20T14:33:07.207Z,0.75
2023-10-20T14:35:37.240Z,0.68
2023-10-20T14:38:04.246Z,0.60
2023-10-20T14:40:31.033Z,1.00
2023-10-20T14:42:57.785Z,1.08
2023-10-20T14:45:24.669Z,8.27
2023-10-20T14:47:51.515Z,10.77
2023-10-20T14:50:18.326Z,1.27
2023-10-20T14:52:45.172Z,1.50
2023-10-20T14:55:12.651Z,0.87
2023-10-20T14:57:39.542Z,0.70
2023-10-20T15:00:17.130Z,1.08
2023-10-20T15:02:44.556Z,2.47
2023-10-20T15:05:11.377Z,0.70
2023-10-20T15:07:38.181Z,0.70
2023-10-20T15:10:05.549Z,0.40
2023-10-20T15:12:32.627Z,0.85
2023-10-20T15:15:00.740Z,0.50
2023-10-20T15:17:28.052Z,0.38
2023-10-20T15:19:55.288Z,0.45
2023-10-20T15:22:22.136Z,0.30
2023-10-20T15:24:49.796Z,0.32
2023-10-20T15:27:19.488Z,0.20
2023-10-20T15:29:47.709Z,0.32
2023-10-20T15:32:16.652Z,0.28
2023-10-20T15:34:43.631Z,0.30
2023-10-20T15:37:10.440Z,0.22
2023-10-20T15:39:47.831Z,0.30
2023-10-20T15:42:17.849Z,0.20
2023-10-20T15:44:44.882Z,0.30
2023-10-20T15:47:11.903Z,0.30
2023-10-20T15:49:38.901Z,0.20
2023-10-20T15:52:05.795Z,0.20
2023-10-20T15:54:35.007Z,0.10
2023-10-20T15:57:02.054Z,0.20
2023-10-20T15:59:29.355Z,0.13
2023-10-20T16:01:56.187Z,0.20
2023-10-20T16:04:23.700Z,0.10
2023-10-20T16:06:50.817Z,0.20
2023-10-20T16:09:19.707Z,0.20
2023-10-20T16:11:46.961Z,0.20
2023-10-20T16:14:13.859Z,0.55
2023-10-20T16:16:40.655Z,0.20
2023-10-20T16:19:07.524Z,0.20
2023-10-20T16:21:34.350Z,0.30
2023-10-20T16:24:01.101Z,0.20
2023-10-20T16:26:28.033Z,0.20
2023-10-20T16:28:54.851Z,0.15
2023-10-20T16:31:21.731Z,0.20
2023-10-20T16:33:48.579Z,0.17
2023-10-20T16:36:15.368Z,0.25
2023-10-20T16:38:42.205Z,0.13
2023-10-20T16:41:09.044Z,0.20
2023-10-20T16:43:35.814Z,0.10
2023-10-20T16:46:05.725Z,0.10
2023-10-20T16:48:33.249Z,0.50
2023-10-20T16:51:01.579Z,0.20
2023-10-20T16:53:28.827Z,0.30
2023-10-20T16:56:00.397Z,0.60
2023-10-20T16:58:30.269Z,0.50
2023-10-20T17:01:07.083Z,0.30
2023-10-20T17:03:35.606Z,0.30
2023-10-20T17:06:06.762Z,0.20
2023-10-20T17:08:34.239Z,0.20
2023-10-20T17:11:05.410Z,0.20
2023-10-20T17:13:33.237Z,0.15
2023-10-20T17:16:07.148Z,0.30
2023-10-20T17:18:34.668Z,0.25
2023-10-20T17:21:05.592Z,0.88
2023-10-20T17:23:32.807Z,0.30
2023-10-20T17:26:00.221Z,0.77
2023-10-20T17:28:27.092Z,0.35
2023-10-20T17:30:58.856Z,0.17
2023-10-20T17:33:29.076Z,0.20
2023-10-20T17:36:04.164Z,0.20
2023-10-20T17:38:31.305Z,0.22
2023-10-20T17:41:05.220Z,0.20
2023-10-20T17:43:32.975Z,0.20
2023-10-20T17:46:11.697Z,0.20
2023-10-20T17:48:38.728Z,0.13
2023-10-20T17:51:06.028Z,0.30
2023-10-20T17:53:33.903Z,0.20
2023-10-20T17:56:05.075Z,0.30
2023-10-20T17:58:31.984Z,0.77
2023-10-20T18:01:09.972Z,0.40
2023-10-20T18:03:38.613Z,0.65
2023-10-20T18:06:09.995Z,0.88
2023-10-20T18:08:38.779Z,0.30
2023-10-20T18:11:10.158Z,0.20
2023-10-20T18:13:44.366Z,0.28
2023-10-20T18:16:16.137Z,0.35
2023-10-20T18:18:46.080Z,0.40
2023-10-20T18:21:13.367Z,0.30
2023-10-20T18:23:43.214Z,0.40
2023-10-20T18:26:10.011Z,0.30
2023-10-20T18:28:37.174Z,0.77
2023-10-20T18:31:12.738Z,0.25
2023-10-20T18:33:39.978Z,0.45
2023-10-20T18:36:07.307Z,0.57
2023-10-20T18:38:34.239Z,0.40
2023-10-20T18:41:02.793Z,0.30
2023-10-20T18:43:30.099Z,0.40
2023-10-20T18:46:00.897Z,0.22
2023-10-20T18:48:28.674Z,0.20
2023-10-20T18:51:05.014Z,0.30
2023-10-20T18:53:31.985Z,0.50
2023-10-20T18:55:58.754Z,0.30
2023-10-20T18:58:25.828Z,0.25
2023-10-20T19:00:55.567Z,0.30
2023-10-20T19:03:22.533Z,0.30
2023-10-20T19:05:50.988Z,0.17
2023-10-20T19:08:17.884Z,0.30
2023-10-20T19:10:45.045Z,0.20
2023-10-20T19:13:12.155Z,0.20
2023-10-20T19:15:39.040Z,0.10
2023-10-20T19:35:44.605Z,0.22
2023-10-20T19:38:13.203Z,0.30
2023-10-20T19:40:39.901Z,0.30
2023-10-20T19:43:06.726Z,0.20
2023-10-20T19:45:33.495Z,0.30
2023-10-20T19:48:00.335Z,0.30
2023-10-20T19:50:27.440Z,0.50
2023-10-20T19:52:54.215Z,0.30
2023-10-20T19:55:20.956Z,0.40
2023-10-20T19:57:48.536Z,0.13
2023-10-20T20:00:19.882Z,0.30
2023-10-20T20:02:46.789Z,0.25
2023-10-20T20:05:13.974Z,0.30
2023-10-20T20:07:41.016Z,0.38
2023-10-20T20:10:09.516Z,0.30
2023-10-20T20:12:36.497Z,0.30
2023-10-20T20:15:03.665Z,0.40
2023-10-20T20:17:30.430Z,0.38
2023-10-20T20:19:57.409Z,1.30
2023-10-20T20:22:24.334Z,0.20
2023-10-20T20:24:51.682Z,0.30
2023-10-20T20:27:20.126Z,0.30
2023-10-20T20:29:46.854Z,0.50
2023-10-20T20:32:13.636Z,0.40
2023-10-20T20:34:40.601Z,0.30
2023-10-20T20:37:07.348Z,0.30
2023-10-20T20:39:34.326Z,0.35
2023-10-20T20:42:02.547Z,0.22
2023-10-20T20:44:31.891Z,0.22
2023-10-20T20:46:58.736Z,0.30
2023-10-20T20:49:25.470Z,0.30
2023-10-20T20:51:52.400Z,0.50
2023-10-20T20:54:19.168Z,0.30
2023-10-20T20:56:45.941Z,0.60
2023-10-20T20:59:12.760Z,0.35
2023-10-20T21:01:40.068Z,0.30
2023-10-20T21:04:07.154Z,0.47
2023-10-20T21:06:37.621Z,0.40
2023-10-20T21:09:06.186Z,0.68
2023-10-20T21:11:33.151Z,0.60
2023-10-20T21:14:00.027Z,0.40
2023-10-20T21:16:26.870Z,0.20
2023-10-20T21:18:54.500Z,0.20
2023-10-20T21:21:23.750Z,0.30
2023-10-20T21:23:50.745Z,0.30
2023-10-20T21:26:17.571Z,0.20
2023-10-20T21:28:44.422Z,0.30
2023-10-20T21:31:11.230Z,0.30
2023-10-20T21:33:38.153Z,0.27
2023-10-20T21:36:05.294Z,0.30
2023-10-20T21:38:32.185Z,0.30
2023-10-20T21:40:59.315Z,0.40
2023-10-20T21:43:26.313Z,0.30
2023-10-20T21:45:57.234Z,0.27
2023-10-20T21:48:24.923Z,0.20
2023-10-20T21:50:59.635Z,0.20
2023-10-20T21:53:26.944Z,0.70
2023-10-20T21:56:04.231Z,0.40
2023-10-20T21:58:32.451Z,0.30
2023-10-20T22:01:00.147Z,0.38
2023-10-20T22:03:28.474Z,0.30
2023-10-20T22:05:55.716Z,0.30
2023-10-20T22:08:23.000Z,1.70
2023-10-20T22:10:50.415Z,0.20
2023-10-20T22:13:17.789Z,0.30
2023-10-20T22:15:44.739Z,0.20
2023-10-20T22:18:12.113Z,0.50
2023-10-20T22:20:39.472Z,0.30
2023-10-20T22:23:06.954Z,0.28
2023-10-20T22:25:34.010Z,0.47
2023-10-20T22:28:00.822Z,0.30
2023-10-20T22:30:27.709Z,0.50
2023-10-20T22:32:54.652Z,0.30
2023-10-20T22:35:21.472Z,0.50
2023-10-20T22:37:49.667Z,0.40
2023-10-20T22:40:17.390Z,0.57
2023-10-20T22:42:44.121Z,0.30
2023-10-20T22:45:11.048Z,0.30
2023-10-20T22:47:38.821Z,0.30
2023-10-20T22:50:08.721Z,0.30
2023-10-20T22:52:36.002Z,0.20
2023-10-20T22:55:05.071Z,0.40
2023-10-20T22:57:33.013Z,0.40
2023-10-20T23:00:00.531Z,0.30
2023-10-20T23:02:27.624Z,0.40
2023-10-20T23:04:54.594Z,0.40
2023-10-20T23:07:21.372Z,0.23
2023-10-20T23:09:48.224Z,0.27
2023-10-20T23:12:16.789Z,0.50
2023-10-20T23:14:43.928Z,0.20
2023-10-20T23:17:10.823Z,0.40
2023-10-20T23:19:37.775Z,0.50
2023-10-20T23:22:05.613Z,0.30
2023-10-20T23:24:32.442Z,0.30
2023-10-20T23:26:59.634Z,0.37
2023-10-20T23:29:26.749Z,0.37
2023-10-20T23:31:53.641Z,0.20
2023-10-20T23:34:20.462Z,0.20
2023-10-20T23:36:47.235Z,0.60
2023-10-20T23:39:14.030Z,0.40
2023-10-20T23:41:40.988Z,0.20
2023-10-20T23:44:07.766Z,0.30
2023-10-20T23:46:34.503Z,0.50
2023-10-20T23:49:01.329Z,0.43
2023-10-20T23:51:28.073Z,0.50
2023-10-20T23:53:54.863Z,0.30
2023-10-20T23:56:21.684Z,0.70
2023-10-20T23:58:48.490Z,0.90
